Time;durP1;ratioP1;P1;durP2;ratioP2;P2;SDS_P1;SDS_P2;PMS_P1;PMS_P2;Temp;Humidity;BMP_temperature;BMP_pressure;BME280_temperature;BME280_humidity;BME280_pressure;Samples;Min_cycle;Max_cycle;Signal;HPM_P1;HPM_P2
2023/04/02 00:01:45;;;;;;;;;8.75;5.25;;;;;22.80;39.07;100651.31;5032013;28;45323;-69
2023/04/02 00:04:22;;;;;;;;;5.75;5.25;;;;;22.78;38.99;100657.78;5020291;28;45465;-69
2023/04/02 00:06:53;;;;;;;;;6.25;6.25;;;;;22.78;38.78;100652.44;5040333;28;45424;-70
2023/04/02 00:09:34;;;;;;;;;7.25;5.00;;;;;22.80;38.90;100663.81;5040928;28;46142;-69
2023/04/02 00:12:14;;;;;;;;;4.00;3.75;;;;;22.78;39.09;100663.94;5041263;28;45498;-69
2023/04/02 00:14:45;;;;;;;;;6.75;6.75;;;;;22.77;38.63;100667.59;5030969;28;45325;-70
2023/04/02 00:17:10;;;;;;;;;8.75;6.75;;;;;22.74;38.69;100663.34;5051606;28;45377;-70
2023/04/02 00:19:38;;;;;;;;;5.25;5.25;;;;;22.69;38.45;100651.34;5033016;28;53674;-69
2023/04/02 00:22:06;;;;;;;;;7.00;6.00;;;;;22.78;39.18;100673.78;5041338;28;45444;-69
2023/04/02 00:24:32;;;;;;;;;10.00;5.25;;;;;22.79;38.96;100678.13;5024838;28;45425;-69
2023/04/02 00:26:58;;;;;;;;;6.50;5.25;;;;;22.79;38.64;100676.34;5021490;28;45271;-70
2023/04/02 00:29:24;;;;;;;;;4.25;4.25;;;;;22.78;39.01;100673.78;5036677;28;48248;-70
2023/04/02 00:31:51;;;;;;;;;9.50;5.25;;;;;22.78;38.93;100679.97;5034588;28;45243;-70
2023/04/02 00:34:36;;;;;;;;;5.50;5.00;;;;;22.79;38.46;100675.47;5044848;28;46754;-70
2023/04/02 00:37:03;;;;;;;;;5.75;5.00;;;;;22.74;38.66;100684.69;5048608;28;45617;-69
2023/04/02 00:39:33;;;;;;;;;6.50;3.00;;;;;22.75;38.78;100689.06;5032905;28;45490;-70
2023/04/02 00:42:04;;;;;;;;;4.50;4.50;;;;;22.75;38.49;100691.72;5054292;28;45645;-70
2023/04/02 00:44:32;;;;;;;;;5.75;5.75;;;;;22.74;39.27;100687.34;5023784;28;45377;-70
2023/04/02 00:47:03;;;;;;;;;4.75;4.00;;;;;22.77;38.51;100693.41;5038187;28;45321;-70
2023/04/02 00:49:35;;;;;;;;;5.25;5.25;;;;;22.76;38.88;100689.91;5035616;28;47561;-70
2023/04/02 00:52:25;;;;;;;;;4.75;4.75;;;;;22.77;38.39;100693.41;5023184;28;45352;-69
2023/04/02 00:54:58;;;;;;;;;6.50;4.00;;;;;22.78;38.93;100697.78;5043441;28;45557;-70
2023/04/02 00:57:24;;;;;;;;;6.50;6.00;;;;;22.75;38.56;100691.72;5025341;28;45501;-69
2023/04/02 00:59:53;;;;;;;;;4.75;4.00;;;;;22.75;38.66;100691.72;5036511;28;45448;-69
2023/04/02 01:02:26;;;;;;;;;2.25;2.25;;;;;22.77;38.41;100696.09;5051196;28;45370;-69
2023/04/02 01:05:16;;;;;;;;;4.25;3.00;;;;;22.73;38.97;100692.81;5027223;28;45436;-70
2023/04/02 01:08:19;;;;;;;;;4.50;4.50;;;;;22.76;38.82;100708.56;5056849;28;45510;-69
2023/04/02 01:11:06;;;;;;;;;3.00;3.00;;;;;22.76;38.93;100713.91;5053988;28;45831;-69
2023/04/02 01:13:49;;;;;;;;;3.00;3.00;;;;;22.75;38.54;100713.06;5028900;28;45720;-70
2023/04/02 01:16:45;;;;;;;;;4.00;4.00;;;;;22.75;38.70;100717.53;5052409;28;45419;-69
2023/04/02 01:19:49;;;;;;;;;2.25;2.25;;;;;22.76;38.44;100721.91;5006834;28;45841;-69
2023/04/02 01:22:35;;;;;;;;;4.25;3.25;;;;;22.76;38.49;100721.91;5055470;28;45404;-69
2023/04/02 01:25:03;;;;;;;;;5.75;4.00;;;;;22.75;38.28;100730.88;5041371;28;45508;-69
2023/04/02 01:27:50;;;;;;;;;3.50;3.50;;;;;22.75;38.88;100730.88;5027181;28;45467;-69
2023/04/02 01:30:17;;;;;;;;;4.00;2.75;;;;;22.70;38.98;100714.38;5017565;28;46403;-69
2023/04/02 01:32:42;;;;;;;;;3.50;3.25;;;;;22.74;38.29;100727.38;5033009;28;45564;-69
2023/04/02 01:35:08;;;;;;;;;3.00;3.00;;;;;22.73;38.65;100730.16;5040903;28;71427;-69
2023/04/02 01:37:49;;;;;;;;;2.75;2.75;;;;;22.72;38.53;100723.13;5044425;28;45413;-70
2023/04/02 01:40:30;;;;;;;;;5.50;3.50;;;;;22.73;38.45;100723.03;5030274;28;45678;-69
2023/04/02 01:43:04;;;;;;;;;3.75;3.25;;;;;22.74;38.26;100729.19;5033115;28;46073;-69
2023/04/02 01:45:30;;;;;;;;;2.00;2.00;;;;;22.72;38.38;100725.81;5037945;28;45729;-69
2023/04/02 01:47:55;;;;;;;;;3.25;3.25;;;;;22.73;38.79;100733.69;5033695;28;63941;-69
2023/04/02 01:50:23;;;;;;;;;2.25;2.00;;;;;22.74;38.25;100731.88;5034960;28;45846;-69
2023/04/02 01:52:50;;;;;;;;;2.00;2.00;;;;;22.72;38.41;100731.97;5040121;28;45381;-69
2023/04/02 01:55:41;;;;;;;;;2.50;2.50;;;;;22.74;38.53;100739.88;5036193;28;45365;-69
2023/04/02 01:58:10;;;;;;;;;2.25;2.00;;;;;22.69;38.56;100731.38;5040513;28;45466;-69
2023/04/02 02:00:43;;;;;;;;;2.75;2.50;;;;;22.70;38.83;100733.94;5039243;28;45414;-70
2023/04/02 02:03:10;;;;;;;;;4.75;2.00;;;;;22.70;38.37;100741.06;5034877;28;46082;-70
2023/04/02 02:05:36;;;;;;;;;2.00;2.00;;;;;22.72;38.53;100745.31;5014182;28;45472;-69
2023/04/02 02:08:01;;;;;;;;;2.50;2.00;;;;;22.70;38.55;100736.59;5030420;28;45242;-70
2023/04/02 02:10:34;;;;;;;;;4.00;1.75;;;;;22.73;38.25;100748.84;5041782;28;45798;-70
2023/04/02 02:12:59;;;;;;;;;2.50;2.50;;;;;22.70;38.36;100749.06;5037444;28;45521;-70
2023/04/02 02:15:25;;;;;;;;;2.00;2.00;;;;;22.69;38.21;100750.06;5038274;28;45262;-70
2023/04/02 02:17:57;;;;;;;;;1.25;1.25;;;;;22.70;38.23;100746.41;5020307;28;45585;-70
2023/04/02 02:20:23;;;;;;;;;2.50;2.00;;;;;22.66;38.86;100739.59;5034788;28;44884;-69
2023/04/02 02:22:50;;;;;;;;;2.25;1.25;;;;;22.68;38.61;100759.88;5035944;28;47304;-69
2023/04/02 02:25:21;;;;;;;;;3.00;1.25;;;;;22.71;38.28;100753.44;5029983;28;61860;-69
2023/04/02 02:28:06;;;;;;;;;4.25;3.25;;;;;22.72;38.37;100764.00;5022442;28;45553;-68
2023/04/02 02:30:42;;;;;;;;;2.50;2.50;;;;;22.69;38.25;100764.22;5023199;28;45726;-69
2023/04/02 02:33:30;;;;;;;;;3.00;2.00;;;;;22.70;38.36;100765.06;5039326;28;46310;-69
2023/04/02 02:36:05;;;;;;;;;2.50;2.50;;;;;22.69;38.10;100761.56;5035010;28;45761;-70
2023/04/02 02:38:33;;;;;;;;;1.00;1.00;;;;;22.70;38.20;100784.63;5054239;28;45314;-70
2023/04/02 02:41:25;;;;;;;;;2.00;2.00;;;;;22.70;38.29;100786.41;5038473;28;45930;-70
2023/04/02 02:44:17;;;;;;;;;2.25;2.00;;;;;22.69;38.55;100782.06;5019198;28;45435;-69
2023/04/02 02:46:47;;;;;;;;;2.25;1.00;;;;;22.67;38.29;100781.34;5011840;28;46415;-69
2023/04/02 02:49:20;;;;;;;;;2.75;2.00;;;;;22.69;38.21;100784.72;5032842;28;45385;-68
2023/04/02 02:51:51;;;;;;;;;0.25;0.25;;;;;22.67;38.60;100787.50;5042918;28;45464;-68
2023/04/02 02:54:17;;;;;;;;;0.75;0.25;;;;;22.67;38.14;100789.34;5023495;28;46037;-69
2023/04/02 02:56:48;;;;;;;;;3.50;1.00;;;;;22.65;38.10;100788.63;5034527;28;46771;-69
2023/04/02 02:59:15;;;;;;;;;0.75;0.75;;;;;22.68;38.56;100797.22;5031472;28;45338;-69
2023/04/02 03:01:42;;;;;;;;;1.00;0.00;;;;;22.68;38.19;100799.03;5006685;28;45526;-69
2023/04/02 03:04:07;;;;;;;;;1.75;0.75;;;;;22.66;38.04;100800.97;5029801;28;46979;-69
2023/04/02 03:06:35;;;;;;;;;1.25;1.25;;;;;22.66;38.37;100796.47;5032860;28;49167;-69
2023/04/02 03:09:11;;;;;;;;;0.75;0.50;;;;;22.66;38.39;100801.81;5025459;28;45779;-69
2023/04/02 03:11:41;;;;;;;;;0.00;0.00;;;;;22.69;38.26;100806.91;5034412;28;45626;-69
2023/04/02 03:14:40;;;;;;;;;1.25;0.25;;;;;22.69;38.28;100806.91;5028068;28;46471;-69
2023/04/02 03:17:27;;;;;;;;;1.00;1.00;;;;;22.68;37.96;100809.69;5035333;28;45752;-69
2023/04/02 03:20:05;;;;;;;;;0.75;0.25;;;;;22.67;38.30;100811.53;5023261;28;45556;-69
2023/04/02 03:22:44;;;;;;;;;1.75;1.00;;;;;22.66;37.96;100811.63;5023089;28;45483;-69
2023/04/02 03:25:22;;;;;;;;;1.75;0.50;;;;;22.67;38.26;100819.53;5031742;28;46317;-69
2023/04/02 03:27:50;;;;;;;;;0.25;0.25;;;;;22.68;38.59;100825.69;5032580;28;45844;-69
2023/04/02 03:30:34;;;;;;;;;0.25;0.25;;;;;22.68;38.01;100826.56;5031366;28;45557;-69
2023/04/02 03:33:31;;;;;;;;;2.00;1.00;;;;;22.65;38.02;100826.81;5043409;28;46112;-69
2023/04/02 03:36:12;;;;;;;;;0.50;0.50;;;;;22.67;38.27;100846.19;5027743;28;45488;-69
2023/04/02 03:38:43;;;;;;;;;0.25;0.25;;;;;22.64;38.00;100838.44;5014580;28;45803;-69
2023/04/02 03:41:18;;;;;;;;;1.00;1.00;;;;;22.67;38.23;100850.69;5022411;28;45515;-70
2023/04/02 03:43:55;;;;;;;;;1.00;0.50;;;;;22.65;38.34;100850.81;5020068;28;45601;-68
2023/04/02 03:46:40;;;;;;;;;0.25;0.25;;;;;22.66;38.50;100852.50;5033552;28;47044;-69
2023/04/02 03:49:10;;;;;;;;;1.00;1.00;;;;;22.65;38.27;100856.16;5037055;28;45451;-69
2023/04/02 03:51:49;;;;;;;;;1.00;1.00;;;;;22.66;38.39;100854.31;5029865;28;45544;-69
2023/04/02 03:54:15;;;;;;;;;1.00;1.00;;;;;22.65;38.00;100848.16;5022426;28;45508;-69
2023/04/02 03:56:42;;;;;;;;;0.50;0.50;;;;;22.64;38.35;100848.25;5039225;28;46740;-69
2023/04/02 03:59:26;;;;;;;;;0.25;0.25;;;;;22.65;38.03;100857.97;5022908;28;45238;-69
2023/04/02 04:01:58;;;;;;;;;1.00;0.00;;;;;22.66;38.05;100862.31;5028436;28;45328;-69
2023/04/02 04:04:27;;;;;;;;;1.00;1.00;;;;;22.66;38.05;100865.00;5038038;28;45415;-69
2023/04/02 04:06:55;;;;;;;;;0.00;0.00;;;;;22.66;37.96;100862.31;5047587;28;45393;-69
2023/04/02 04:09:34;;;;;;;;;0.00;0.00;;;;;22.65;37.90;100873.97;5032823;28;45761;-69
2023/04/02 04:12:11;;;;;;;;;1.00;1.00;;;;;22.63;38.37;100873.22;5036071;28;45449;-69
2023/04/02 04:14:42;;;;;;;;;1.00;1.00;;;;;22.63;38.36;100879.44;5033145;28;46008;-69
2023/04/02 04:17:12;;;;;;;;;0.00;0.00;;;;;22.65;38.24;100889.97;5025061;28;49725;-69
2023/04/02 04:19:58;;;;;;;;;2.00;0.50;;;;;22.66;38.04;100889.00;5036263;28;45482;-68
2023/04/02 04:22:29;;;;;;;;;0.00;0.00;;;;;22.64;38.19;100883.78;5049037;28;45353;-69
2023/04/02 04:24:56;;;;;;;;;0.00;0.00;;;;;22.62;38.38;100884.88;5029904;28;45655;-69
2023/04/02 04:27:32;;;;;;;;;0.50;0.50;;;;;22.64;38.26;100888.28;5052893;28;45648;-69
2023/04/02 04:30:09;;;;;;;;;1.00;0.75;;;;;22.63;38.39;100892.75;5031427;28;45633;-68
2023/04/02 04:32:37;;;;;;;;;1.00;0.00;;;;;22.65;38.40;100898.00;5035298;28;45979;-68
2023/04/02 04:35:53;;;;;;;;;1.00;0.25;;;;;22.63;38.29;100897.22;5043384;28;45554;-68
2023/04/02 04:38:26;;;;;;;;;0.00;0.00;;;;;22.63;37.95;100900.75;5029234;28;46961;-68
2023/04/02 04:40:57;;;;;;;;;1.25;0.75;;;;;22.63;37.59;100906.09;5049361;28;45554;-69
2023/04/02 04:43:36;;;;;;;;;1.00;1.00;;;;;22.63;37.71;100903.44;5036390;28;45399;-69
2023/04/02 04:46:30;;;;;;;;;1.00;0.00;;;;;22.64;37.78;100914.94;5028340;28;45496;-69
2023/04/02 04:49:08;;;;;;;;;0.75;0.25;;;;;22.63;37.75;100907.91;5043351;28;46524;-68
2023/04/02 04:51:52;;;;;;;;;1.00;1.00;;;;;22.62;38.09;100917.72;5036773;28;45902;-68
2023/04/02 04:54:19;;;;;;;;;1.00;1.00;;;;;22.61;38.10;100918.72;5022354;28;45403;-68
2023/04/02 04:56:47;;;;;;;;;0.25;0.00;;;;;22.62;38.03;100920.38;5019246;28;45362;-68
2023/04/02 04:59:26;;;;;;;;;1.00;1.00;;;;;22.61;38.35;100932.03;5039660;28;46480;-68
2023/04/02 05:02:01;;;;;;;;;0.25;0.00;;;;;22.62;38.38;100930.22;5027215;28;45380;-69
2023/04/02 05:04:37;;;;;;;;;1.00;1.00;;;;;22.62;38.32;100939.06;5037785;28;45417;-68
2023/04/02 05:07:04;;;;;;;;;2.00;0.25;;;;;22.61;37.77;100934.72;5019475;28;45361;-69
2023/04/02 05:09:43;;;;;;;;;1.00;1.00;;;;;22.59;37.94;100947.28;5036281;28;46916;-69
2023/04/02 05:12:38;;;;;;;;;1.00;1.00;;;;;22.62;38.27;100943.56;5033514;28;45323;-69
2023/04/02 05:15:16;;;;;;;;;1.00;0.25;;;;;22.61;38.27;100955.19;5033903;28;45608;-69
2023/04/02 05:17:59;;;;;;;;;0.25;0.00;;;;;22.60;38.29;100953.50;5037019;28;45363;-69
2023/04/02 05:20:48;;;;;;;;;0.75;0.75;;;;;22.59;38.13;100957.97;5034232;28;47055;-69
2023/04/02 05:23:22;;;;;;;;;0.50;0.00;;;;;22.62;37.87;100963.06;5019836;28;45254;-69
2023/04/02 05:25:59;;;;;;;;;0.00;0.00;;;;;22.61;37.92;100969.38;5033942;28;45288;-68
2023/04/02 05:28:33;;;;;;;;;1.00;1.00;;;;;22.59;37.70;100973.97;5027135;28;45586;-69
2023/04/02 05:31:12;;;;;;;;;1.00;1.00;;;;;22.61;37.84;100977.41;5029366;28;45665;-69
2023/04/02 05:33:38;;;;;;;;;0.25;0.25;;;;;22.61;37.72;100981.84;5046179;28;45367;-69
2023/04/02 05:36:18;;;;;;;;;0.25;0.00;;;;;22.61;37.76;100976.53;5041407;28;45432;-68
2023/04/02 05:38:45;;;;;;;;;1.00;1.00;;;;;22.60;37.77;100986.34;5031294;28;45428;-69
2023/04/02 05:41:31;;;;;;;;;0.25;0.25;;;;;22.60;37.88;100991.69;5033683;28;45501;-69
2023/04/02 05:44:11;;;;;;;;;0.00;0.00;;;;;22.60;37.65;100994.34;5030789;28;45455;-69
2023/04/02 05:46:48;;;;;;;;;2.00;0.00;;;;;22.58;38.13;101004.28;5034566;28;45661;-69
2023/04/02 05:49:26;;;;;;;;;0.00;0.00;;;;;22.58;37.63;101001.63;5018392;28;45527;-68
2023/04/02 05:51:54;;;;;;;;;0.50;0.50;;;;;22.60;37.68;101013.03;5045470;28;45802;-69
2023/04/02 05:54:28;;;;;;;;;0.00;0.00;;;;;22.58;38.05;101011.44;5016162;28;45561;-69
2023/04/02 05:56:59;;;;;;;;;0.50;0.00;;;;;22.60;38.09;101014.84;5009411;28;45593;-69
2023/04/02 05:59:28;;;;;;;;;0.25;0.25;;;;;22.59;37.97;101007.78;5020779;28;45520;-69
2023/04/02 06:01:59;;;;;;;;;1.00;1.00;;;;;22.60;38.16;101014.84;5032870;28;45593;-69
2023/04/02 06:04:42;;;;;;;;;3.00;1.00;;;;;22.59;38.17;101018.47;5030509;28;45380;-69
2023/04/02 06:07:21;;;;;;;;;1.00;1.00;;;;;22.58;38.12;101017.63;5028358;28;45404;-68
2023/04/02 06:10:11;;;;;;;;;0.50;0.50;;;;;22.58;37.72;101016.78;5034873;28;45320;-68
2023/04/02 06:12:47;;;;;;;;;1.00;1.00;;;;;22.58;37.51;101022.13;5016873;28;48389;-68
2023/04/02 06:15:14;;;;;;;;;2.00;0.00;;;;;22.58;37.99;101027.44;5014595;28;45816;-68
2023/04/02 06:17:46;;;;;;;;;2.50;1.00;;;;;22.56;37.63;101025.72;5020008;28;45410;-69
2023/04/02 06:20:14;;;;;;;;;1.50;0.25;;;;;22.55;37.84;101025.84;5034247;28;45979;-69
2023/04/02 06:22:42;;;;;;;;;0.00;0.00;;;;;22.58;37.81;101030.97;5037995;28;47460;-69
2023/04/02 06:25:10;;;;;;;;;0.25;0.00;;;;;22.59;37.86;101040.66;5022378;28;45653;-68
2023/04/02 06:27:37;;;;;;;;;1.25;0.75;;;;;22.57;37.76;101042.59;5032738;28;45460;-69
2023/04/02 06:30:05;;;;;;;;;0.75;0.00;;;;;22.59;37.45;101048.66;5031279;28;45549;-69
2023/04/02 06:32:30;;;;;;;;;2.00;1.00;;;;;22.57;37.90;101053.25;5020661;28;46932;-69
2023/04/02 06:34:56;;;;;;;;;1.00;1.00;;;;;22.57;38.08;101058.59;5034190;28;56452;-69
2023/04/02 06:37:27;;;;;;;;;0.00;0.00;;;;;22.58;37.82;101060.31;5035379;28;45322;-69
2023/04/02 06:39:54;;;;;;;;;1.00;1.00;;;;;22.57;37.86;101061.25;5036892;28;45784;-69
2023/04/02 06:42:23;;;;;;;;;2.25;0.25;;;;;22.58;38.00;101067.47;5037610;28;45578;-69
2023/04/02 06:44:49;;;;;;;;;0.00;0.00;;;;;22.57;37.41;101066.59;5038525;28;45488;-69
2023/04/02 06:47:29;;;;;;;;;0.25;0.00;;;;;22.53;37.70;101065.97;5037923;28;45424;-69
2023/04/02 06:50:04;;;;;;;;;1.00;1.00;;;;;22.56;38.00;101073.75;5037628;28;45577;-69
2023/04/02 06:52:35;;;;;;;;;1.00;1.00;;;;;22.55;37.48;101073.84;5055113;28;45355;-69
2023/04/02 06:55:06;;;;;;;;;1.75;0.00;;;;;22.55;37.64;101079.19;5039323;28;45341;-69
2023/04/02 06:57:34;;;;;;;;;0.00;0.00;;;;;22.56;37.57;101076.41;5022674;28;45323;-69
2023/04/02 06:59:59;;;;;;;;;0.25;0.25;;;;;22.55;38.00;101081.84;5036337;28;45392;-68
2023/04/02 07:02:36;;;;;;;;;0.75;0.75;;;;;22.55;37.82;101082.69;5037757;28;75132;-69
2023/04/02 07:05:05;;;;;;;;;0.00;0.00;;;;;22.54;37.45;101086.34;5026541;28;45436;-69
2023/04/02 07:07:31;;;;;;;;;1.00;1.00;;;;;22.54;37.79;101102.34;5035115;28;45506;-68
2023/04/02 07:09:56;;;;;;;;;1.50;0.00;;;;;22.53;37.71;101091.78;5033964;28;45611;-68
2023/04/02 07:12:25;;;;;;;;;0.25;0.25;;;;;22.56;38.00;101110.25;5014526;28;46606;-69
2023/04/02 07:14:51;;;;;;;;;1.00;1.00;;;;;22.54;37.42;101106.81;5041213;28;45705;-69
2023/04/02 07:17:17;;;;;;;;;2.00;0.25;;;;;22.56;37.60;101110.25;5041515;28;45416;-68
2023/04/02 07:19:44;;;;;;;;;2.00;1.00;;;;;22.55;37.65;101120.03;5034679;28;45501;-68
2023/04/02 07:22:10;;;;;;;;;2.00;0.25;;;;;22.55;38.04;101129.88;5012757;28;47715;-68
2023/04/02 07:24:35;;;;;;;;;0.25;0.25;;;;;22.55;37.53;101122.72;5029715;28;46113;-68
2023/04/02 07:27:01;;;;;;;;;4.75;0.00;;;;;22.57;37.79;101130.59;5012487;28;66909;-68
2023/04/02 07:29:26;;;;;;;;;0.25;0.25;;;;;22.56;37.42;101132.44;5051244;28;45385;-68
2023/04/02 07:31:52;;;;;;;;;0.25;0.25;;;;;22.58;37.53;101136.81;5037252;28;73499;-68
2023/04/02 07:34:18;;;;;;;;;0.00;0.00;;;;;22.60;37.86;101140.22;5047296;28;45428;-69
2023/04/02 07:36:43;;;;;;;;;1.25;1.00;;;;;22.58;37.86;101140.31;5041744;28;45320;-68
2023/04/02 07:39:08;;;;;;;;;2.00;1.00;;;;;22.61;37.42;101148.13;5039306;28;67458;-68
2023/04/02 07:41:49;;;;;;;;;0.75;0.75;;;;;22.63;37.79;101156.88;5045547;28;46945;-68
2023/04/02 07:44:15;;;;;;;;;1.00;1.00;;;;;22.63;37.63;101162.19;5020495;28;45472;-68
2023/04/02 07:46:40;;;;;;;;;0.75;0.25;;;;;22.63;37.83;101166.66;5044853;28;45292;-69
2023/04/02 07:49:06;;;;;;;;;5.00;4.00;;;;;22.64;37.73;101166.56;5042764;28;71106;-68
2023/04/02 07:51:31;;;;;;;;;3.50;3.50;;;;;22.65;37.34;101178.09;5045943;28;45427;-69
2023/04/02 07:53:57;;;;;;;;;5.75;5.00;;;;;22.61;37.45;101172.13;5028404;28;63948;-67
2023/04/02 07:56:24;;;;;;;;;4.75;2.25;;;;;22.61;37.41;101190.81;5039258;28;56741;-75
2023/04/02 07:58:49;;;;;;;;;4.75;2.25;;;;;22.62;37.47;101186.31;5044700;28;45510;-69
2023/04/02 08:01:18;;;;;;;;;4.25;2.25;;;;;22.63;37.02;101186.22;5047500;28;63780;-68
2023/04/02 08:03:43;;;;;;;;;3.00;3.00;;;;;22.64;37.25;101184.38;5048081;28;46037;-70
2023/04/02 08:06:09;;;;;;;;;5.50;2.50;;;;;22.62;37.37;101181.81;5051130;28;45352;-69
2023/04/02 08:08:34;;;;;;;;;3.50;2.00;;;;;22.65;36.97;101183.44;5039604;28;45540;-69
2023/04/02 08:11:00;;;;;;;;;3.50;2.50;;;;;22.66;37.55;101195.78;5038063;28;45426;-69
2023/04/02 08:13:25;;;;;;;;;3.25;2.75;;;;;22.67;37.35;101187.69;5046956;28;45234;-69
2023/04/02 08:15:50;;;;;;;;;4.50;2.25;;;;;22.70;37.17;101190.16;5038092;28;45705;-69
2023/04/02 08:18:16;;;;;;;;;3.00;3.00;;;;;22.72;37.25;101204.22;5027459;28;45463;-69
2023/04/02 08:20:41;;;;;;;;;2.25;2.25;;;;;22.74;37.11;101204.13;5051430;28;72083;-70
2023/04/02 08:23:15;;;;;;;;;6.00;2.75;;;;;22.75;37.29;101208.47;5027077;28;72753;-71
2023/04/02 08:25:41;;;;;;;;;3.50;3.50;;;;;22.75;37.31;101211.16;5035621;28;45236;-73
2023/04/02 08:28:06;;;;;;;;;3.00;3.00;;;;;22.78;37.57;101210.94;5028629;28;45504;-70
2023/04/02 08:30:31;;;;;;;;;2.00;2.00;;;;;22.79;37.32;101215.31;5045092;28;69830;-69
2023/04/02 08:32:57;;;;;;;;;4.25;1.25;;;;;22.80;37.48;101217.00;5040696;28;71296;-70
2023/04/02 08:35:22;;;;;;;;;2.75;2.75;;;;;22.82;36.94;101211.56;5023699;28;58630;-68
2023/04/02 08:37:47;;;;;;;;;3.75;2.25;;;;;22.81;37.24;101212.56;5046336;28;56809;-68
2023/04/02 08:40:29;;;;;;;;;2.75;1.75;;;;;22.83;37.17;101208.78;5035003;28;77548;-69
2023/04/02 08:43:22;;;;;;;;;3.50;2.00;;;;;22.84;37.31;101215.84;5046145;28;45303;-70
2023/04/02 08:46:03;;;;;;;;;4.25;4.25;;;;;22.84;37.01;101218.53;5044687;28;45514;-69
2023/04/02 08:48:30;;;;;;;;;2.75;2.75;;;;;22.84;37.37;101231.00;5048998;28;45460;-68
2023/04/02 08:50:57;;;;;;;;;4.50;3.75;;;;;22.82;37.24;101228.44;5011030;28;45979;-69
2023/04/02 08:53:29;;;;;;;;;4.50;2.00;;;;;22.83;37.03;101239.97;5053599;28;45365;-68
2023/04/02 08:56:07;;;;;;;;;5.50;3.00;;;;;22.82;37.27;101246.25;5024392;28;45431;-69
2023/04/02 08:58:41;;;;;;;;;3.75;2.00;;;;;22.81;37.09;101252.59;5019925;28;45436;-69
2023/04/02 09:01:16;;;;;;;;;1.50;1.50;;;;;22.80;37.46;101253.53;5038273;28;45657;-69
2023/04/02 09:03:44;;;;;;;;;3.00;2.00;;;;;22.79;37.19;101262.47;5035681;28;45867;-68
2023/04/02 09:06:12;;;;;;;;;3.50;2.00;;;;;22.79;36.80;101266.03;5043697;28;46573;-69
2023/04/02 09:08:38;;;;;;;;;3.00;2.25;;;;;22.80;37.32;101273.06;5035592;28;45663;-69
2023/04/02 09:11:13;;;;;;;;;4.25;2.50;;;;;22.80;36.98;101285.56;5032227;28;73436;-68
2023/04/02 09:13:42;;;;;;;;;3.50;3.00;;;;;22.78;37.03;101276.81;5048732;28;45153;-68
2023/04/02 09:16:10;;;;;;;;;3.00;2.25;;;;;22.81;36.85;101289.94;5032750;28;45407;-68
2023/04/02 09:18:36;;;;;;;;;1.50;1.50;;;;;22.81;37.02;101303.28;5027597;28;45758;-68
2023/04/02 09:21:17;;;;;;;;;2.33;2.33;;;;;22.82;36.81;101295.13;5037091;28;45696;-68
2023/04/02 09:23:42;;;;;;;;;2.75;2.00;;;;;22.82;37.33;101300.47;5027198;28;45479;-68
2023/04/02 09:26:23;;;;;;;;;2.00;2.00;;;;;22.82;36.82;101303.16;5050677;28;62968;-69
2023/04/02 09:28:50;;;;;;;;;2.00;1.25;;;;;22.83;37.04;101298.69;5033956;28;45211;-68
2023/04/02 09:31:22;;;;;;;;;2.00;2.00;;;;;22.84;36.86;101295.03;5033018;28;45763;-69
2023/04/02 09:33:49;;;;;;;;;2.50;2.50;;;;;22.83;37.19;101301.34;5014178;28;45951;-68
2023/04/02 09:36:24;;;;;;;;;2.50;2.50;;;;;22.85;37.00;101308.28;5020412;28;45409;-69
2023/04/02 09:39:19;;;;;;;;;2.75;2.00;;;;;22.84;37.19;101303.03;5042848;28;45588;-69
2023/04/02 09:41:46;;;;;;;;;1.75;1.75;;;;;22.84;36.74;101306.59;5032892;28;45364;-69
2023/04/02 09:44:21;;;;;;;;;1.25;1.25;;;;;22.87;36.91;101310.84;5024035;28;45404;-70
2023/04/02 09:46:52;;;;;;;;;1.25;1.25;;;;;22.87;37.18;101316.19;5028442;28;45420;-70
2023/04/02 09:49:17;;;;;;;;;2.00;1.25;;;;;22.88;37.42;101315.25;5032779;28;45662;-70
2023/04/02 09:51:43;;;;;;;;;4.25;1.75;;;;;22.87;36.90;101318.84;5027862;28;45530;-70
2023/04/02 09:54:15;;;;;;;;;2.50;2.00;;;;;22.87;37.23;101321.53;5032945;28;65842;-72
2023/04/02 09:57:02;;;;;;;;;2.00;2.00;;;;;22.89;37.00;101324.94;5049277;28;45476;-69
2023/04/02 09:59:27;;;;;;;;;3.00;2.50;;;;;22.86;37.16;101320.69;5034604;28;45907;-70
2023/04/02 10:01:53;;;;;;;;;2.25;2.25;;;;;22.88;37.35;101340.09;5018947;28;47276;-70
2023/04/02 10:04:44;;;;;;;;;2.33;1.33;;;;;22.89;37.54;101351.63;5031742;28;45431;-69
2023/04/02 10:07:33;;;;;;;;;3.25;2.75;;;;;22.89;37.20;101346.28;5040623;28;45471;-69
2023/04/02 10:10:01;;;;;;;;;3.00;0.25;;;;;22.89;37.37;101344.47;5046103;28;45691;-69
2023/04/02 10:12:29;;;;;;;;;3.75;2.25;;;;;22.89;37.30;101352.47;5039834;28;46570;-69
2023/04/02 10:14:59;;;;;;;;;1.25;1.25;;;;;22.88;37.51;101358.78;5047009;28;45844;-70
2023/04/02 10:17:29;;;;;;;;;3.00;2.00;;;;;22.88;37.06;101364.13;5023644;28;63546;-70
2023/04/02 10:20:00;;;;;;;;;4.50;3.25;;;;;22.87;37.28;101365.06;5036723;28;45546;-70
2023/04/02 10:22:27;;;;;;;;;3.00;3.00;;;;;22.87;37.51;101370.41;5021230;28;47203;-70
2023/04/02 10:24:52;;;;;;;;;3.50;1.25;;;;;22.87;37.36;101369.56;5027129;28;45319;-71
2023/04/02 10:27:43;;;;;;;;;2.50;2.50;;;;;22.88;37.63;101373.94;5042672;28;51442;-71
2023/04/02 10:30:15;;;;;;;;;7.50;7.00;;;;;22.89;37.66;101376.50;5014930;28;45550;-70
2023/04/02 10:32:55;;;;;;;;;9.50;6.25;;;;;22.89;37.79;101386.31;5045681;28;46873;-71
2023/04/02 10:35:37;;;;;;;;;13.50;9.75;;;;;22.89;37.38;101380.97;5030877;28;45965;-71
2023/04/02 10:38:21;;;;;;;;;16.00;11.00;;;;;22.90;37.50;101388.88;5038955;28;45424;-70
2023/04/02 10:41:00;;;;;;;;;12.25;9.50;;;;;22.91;37.58;101403.97;5047823;28;45561;-71
2023/04/02 10:43:40;;;;;;;;;11.25;9.00;;;;;22.92;37.72;101396.78;5024069;28;47378;-71
2023/04/02 10:46:24;;;;;;;;;15.00;9.00;;;;;22.92;37.66;101399.47;5036635;28;45526;-71
2023/04/02 10:49:12;;;;;;;;;11.00;9.00;;;;;22.92;37.41;101402.97;5027864;28;45625;-72
2023/04/02 10:51:46;;;;;;;;;10.00;9.00;;;;;22.92;37.26;101404.81;5020086;28;45412;-75
2023/04/02 10:54:11;;;;;;;;;12.50;8.75;;;;;22.91;37.53;101406.63;5017532;28;47750;-72
2023/04/02 10:56:36;;;;;;;;;16.00;9.67;;;;;22.89;37.07;101395.16;5044381;28;45537;-68
2023/04/02 10:59:16;;;;;;;;;15.25;10.00;;;;;22.90;37.06;101406.72;5018302;28;71053;-78
2023/04/02 11:01:42;;;;;;;;;9.50;8.50;;;;;22.87;37.33;101414.94;5026906;28;45417;-70
2023/04/02 11:04:19;;;;;;;;;11.00;8.25;;;;;22.89;37.15;101413.84;5035073;28;54976;-74
2023/04/02 11:06:54;;;;;;;;;11.25;8.75;;;;;22.85;37.21;101404.34;5037964;28;45753;-73
2023/04/02 11:09:25;;;;;;;;;12.00;10.00;;;;;22.86;37.57;101400.75;5050322;28;45369;-70
2023/04/02 11:11:55;;;;;;;;;10.75;10.25;;;;;22.88;37.21;101419.31;5036344;28;45467;-72
2023/04/02 11:14:24;;;;;;;;;12.50;12.50;;;;;22.87;37.14;101429.13;5045785;28;45441;-74
2023/04/02 11:16:51;;;;;;;;;15.25;14.25;;;;;22.85;37.10;101423.03;5035465;28;46317;-72
2023/04/02 11:19:16;;;;;;;;;31.25;24.00;;;;;22.85;37.23;101431.03;5036713;28;45957;-71
2023/04/02 11:21:51;;;;;;;;;24.25;17.25;;;;;22.82;37.38;101420.56;5044785;28;45332;-71
2023/04/02 11:24:30;;;;;;;;;24.00;16.75;;;;;22.85;37.94;101416.84;5007256;28;47278;-70
2023/04/02 11:27:11;;;;;;;;;28.00;20.25;;;;;22.85;37.69;101428.38;5038654;28;45496;-70
2023/04/02 11:29:49;;;;;;;;;27.50;23.00;;;;;22.86;37.44;101437.22;5048590;28;45592;-70
2023/04/02 11:32:26;;;;;;;;;23.00;21.00;;;;;22.85;38.06;101433.72;5032725;28;45880;-70
2023/04/02 11:34:55;;;;;;;;;29.00;23.00;;;;;22.86;37.99;101432.78;5023028;28;48474;-71
2023/04/02 11:37:39;;;;;;;;;28.50;25.00;;;;;22.88;37.93;101446.00;5037311;28;45498;-72
2023/04/02 11:40:12;;;;;;;;;34.50;25.50;;;;;22.87;38.36;101439.81;5030587;28;45441;-71
2023/04/02 11:42:41;;;;;;;;;28.75;24.50;;;;;22.87;38.49;101437.13;5040389;28;45481;-69
2023/04/02 11:45:22;;;;;;;;;27.50;22.50;;;;;22.88;38.52;101440.69;5032785;28;46529;-71
2023/04/02 11:48:16;;;;;;;;;28.25;22.00;;;;;22.87;38.08;101441.63;5041911;28;47901;-74
2023/04/02 11:50:44;;;;;;;;;27.50;22.50;;;;;22.87;38.41;101446.97;5031003;28;45567;-72
2023/04/02 11:53:15;;;;;;;;;34.50;24.25;;;;;22.88;38.52;101451.34;5022006;28;45696;-74